sensor_id;sensor_type;location;lat;lon;timestamp;temperature;humidity
8099;DHT22;4092;47.876;9.372;2023-04-24T00:02:11;8.60;99.90
8099;DHT22;4092;47.876;9.372;2023-04-24T00:04:38;8.60;99.90
8099;DHT22;4092;47.876;9.372;2023-04-24T00:07:07;8.60;99.90
8099;DHT22;4092;47.876;9.372;2023-04-24T00:09:34;8.60;99.90
8099;DHT22;4092;47.876;9.372;2023-04-24T00:12:01;8.50;99.90
8099;DHT22;4092;47.876;9.372;2023-04-24T00:14:30;8.50;99.90
8099;DHT22;4092;47.876;9.372;2023-04-24T00:16:57;8.50;99.90
8099;DHT22;4092;47.876;9.372;2023-04-24T00:19:24;8.50;99.90
8099;DHT22;4092;47.876;9.372;2023-04-24T00:21:51;8.50;99.90
8099;DHT22;4092;47.876;9.372;2023-04-24T00:24:19;8.50;99.90
8099;DHT22;4092;47.876;9.372;2023-04-24T00:26:47;8.50;99.90
8099;DHT22;4092;47.876;9.372;2023-04-24T00:29:14;8.40;99.90
8099;DHT22;4092;47.876;9.372;2023-04-24T00:31:41;8.40;99.90
8099;DHT22;4092;47.876;9.372;2023-04-24T00:34:07;8.50;99.90
8099;DHT22;4092;47.876;9.372;2023-04-24T00:36:36;8.40;99.90
8099;DHT22;4092;47.876;9.372;2023-04-24T00:39:03;8.40;99.90
8099;DHT22;4092;47.876;9.372;2023-04-24T00:41:31;8.40;99.90
8099;DHT22;4092;47.876;9.372;2023-04-24T00:43:59;8.50;99.90
8099;DHT22;4092;47.876;9.372;2023-04-24T00:46:26;8.40;99.90
8099;DHT22;4092;47.876;9.372;2023-04-24T00:48:54;8.50;99.90
8099;DHT22;4092;47.876;9.372;2023-04-24T00:51:22;8.50;99.90
8099;DHT22;4092;47.876;9.372;2023-04-24T00:53:50;8.40;99.90
8099;DHT22;4092;47.876;9.372;2023-04-24T00:56:17;8.40;99.90
8099;DHT22;4092;47.876;9.372;2023-04-24T00:58:47;8.50;99.90
8099;DHT22;4092;47.876;9.372;2023-04-24T01:01:14;8.40;99.90
8099;DHT22;4092;47.876;9.372;2023-04-24T01:03:41;8.40;99.90
8099;DHT22;4092;47.876;9.372;2023-04-24T01:06:09;8.30;99.90
8099;DHT22;4092;47.876;9.372;2023-04-24T01:08:37;8.40;99.90
8099;DHT22;4092;47.876;9.372;2023-04-24T01:11:05;8.40;99.90
8099;DHT22;4092;47.876;9.372;2023-04-24T01:13:33;8.40;99.90
8099;DHT22;4092;47.876;9.372;2023-04-24T01:16:02;8.40;99.90
8099;DHT22;4092;47.876;9.372;2023-04-24T01:18:29;8.40;99.90
8099;DHT22;4092;47.876;9.372;2023-04-24T01:20:58;8.40;99.90
8099;DHT22;4092;47.876;9.372;2023-04-24T01:23:27;8.40;99.90
8099;DHT22;4092;47.876;9.372;2023-04-24T01:25:54;8.40;99.90
8099;DHT22;4092;47.876;9.372;2023-04-24T01:28:22;8.40;99.90
8099;DHT22;4092;47.876;9.372;2023-04-24T01:30:50;8.30;99.90
8099;DHT22;4092;47.876;9.372;2023-04-24T01:33:17;8.30;99.90
8099;DHT22;4092;47.876;9.372;2023-04-24T01:35:46;8.30;99.90
8099;DHT22;4092;47.876;9.372;2023-04-24T01:38:13;8.30;99.90
8099;DHT22;4092;47.876;9.372;2023-04-24T01:40:41;8.30;99.90
8099;DHT22;4092;47.876;9.372;2023-04-24T01:43:08;8.40;99.90
8099;DHT22;4092;47.876;9.372;2023-04-24T01:45:35;8.30;99.90
8099;DHT22;4092;47.876;9.372;2023-04-24T01:48:03;8.30;99.90
8099;DHT22;4092;47.876;9.372;2023-04-24T01:50:30;8.40;99.90
8099;DHT22;4092;47.876;9.372;2023-04-24T01:52:57;8.30;99.90
8099;DHT22;4092;47.876;9.372;2023-04-24T01:55:24;8.20;99.90
8099;DHT22;4092;47.876;9.372;2023-04-24T01:57:55;8.20;99.90
8099;DHT22;4092;47.876;9.372;2023-04-24T02:00:22;8.20;99.90
8099;DHT22;4092;47.876;9.372;2023-04-24T02:02:49;8.20;99.90
8099;DHT22;4092;47.876;9.372;2023-04-24T02:05:16;8.20;99.90
8099;DHT22;4092;47.876;9.372;2023-04-24T02:07:43;8.20;99.90
8099;DHT22;4092;47.876;9.372;2023-04-24T02:10:10;8.10;99.90
8099;DHT22;4092;47.876;9.372;2023-04-24T02:12:37;8.20;99.90
8099;DHT22;4092;47.876;9.372;2023-04-24T02:15:06;8.10;99.90
8099;DHT22;4092;47.876;9.372;2023-04-24T02:17:34;8.10;99.90
8099;DHT22;4092;47.876;9.372;2023-04-24T02:20:02;8.10;99.90
8099;DHT22;4092;47.876;9.372;2023-04-24T02:22:29;8.00;99.90
8099;DHT22;4092;47.876;9.372;2023-04-24T02:24:56;8.00;99.90
8099;DHT22;4092;47.876;9.372;2023-04-24T02:27:23;8.00;99.90
8099;DHT22;4092;47.876;9.372;2023-04-24T02:29:50;8.00;99.90
8099;DHT22;4092;47.876;9.372;2023-04-24T02:32:18;8.00;99.90
8099;DHT22;4092;47.876;9.372;2023-04-24T02:34:45;8.00;99.90
8099;DHT22;4092;47.876;9.372;2023-04-24T02:37:12;7.90;99.90
8099;DHT22;4092;47.876;9.372;2023-04-24T02:39:39;7.90;99.90
8099;DHT22;4092;47.876;9.372;2023-04-24T02:42:06;7.90;99.90
8099;DHT22;4092;47.876;9.372;2023-04-24T02:44:33;7.80;99.90
8099;DHT22;4092;47.876;9.372;2023-04-24T02:47:00;7.80;99.90
8099;DHT22;4092;47.876;9.372;2023-04-24T02:49:28;7.80;99.90
8099;DHT22;4092;47.876;9.372;2023-04-24T02:51:55;7.80;99.90
8099;DHT22;4092;47.876;9.372;2023-04-24T02:54:22;7.80;99.90
8099;DHT22;4092;47.876;9.372;2023-04-24T02:56:49;7.70;99.90
8099;DHT22;4092;47.876;9.372;2023-04-24T02:59:16;7.70;99.90
8099;DHT22;4092;47.876;9.372;2023-04-24T03:01:43;7.60;99.90
8099;DHT22;4092;47.876;9.372;2023-04-24T03:04:10;7.60;99.90
8099;DHT22;4092;47.876;9.372;2023-04-24T03:06:39;7.60;99.90
8099;DHT22;4092;47.876;9.372;2023-04-24T03:09:06;7.60;99.90
8099;DHT22;4092;47.876;9.372;2023-04-24T03:11:33;7.50;99.90
8099;DHT22;4092;47.876;9.372;2023-04-24T03:14:00;7.50;99.90
8099;DHT22;4092;47.876;9.372;2023-04-24T03:16:27;7.40;99.90
8099;DHT22;4092;47.876;9.372;2023-04-24T03:18:54;7.40;99.90
8099;DHT22;4092;47.876;9.372;2023-04-24T03:21:21;7.40;99.90
8099;DHT22;4092;47.876;9.372;2023-04-24T03:23:50;7.40;99.90
8099;DHT22;4092;47.876;9.372;2023-04-24T03:26:17;7.50;99.90
8099;DHT22;4092;47.876;9.372;2023-04-24T03:28:45;7.50;99.90
8099;DHT22;4092;47.876;9.372;2023-04-24T03:31:12;7.40;99.90
8099;DHT22;4092;47.876;9.372;2023-04-24T03:33:40;7.40;99.90
8099;DHT22;4092;47.876;9.372;2023-04-24T03:36:07;7.40;99.90
8099;DHT22;4092;47.876;9.372;2023-04-24T03:38:35;7.30;99.90
8099;DHT22;4092;47.876;9.372;2023-04-24T03:41:03;7.30;99.90
8099;DHT22;4092;47.876;9.372;2023-04-24T03:43:30;7.30;99.90
8099;DHT22;4092;47.876;9.372;2023-04-24T03:45:58;7.30;99.90
8099;DHT22;4092;47.876;9.372;2023-04-24T03:48:25;7.30;99.90
8099;DHT22;4092;47.876;9.372;2023-04-24T03:50:53;7.30;99.90
8099;DHT22;4092;47.876;9.372;2023-04-24T03:53:20;7.30;99.90
8099;DHT22;4092;47.876;9.372;2023-04-24T03:55:47;7.40;99.90
8099;DHT22;4092;47.876;9.372;2023-04-24T03:58:16;7.40;99.90
8099;DHT22;4092;47.876;9.372;2023-04-24T04:00:43;7.30;99.90
8099;DHT22;4092;47.876;9.372;2023-04-24T04:03:12;7.30;99.90
8099;DHT22;4092;47.876;9.372;2023-04-24T04:05:40;7.30;99.90
8099;DHT22;4092;47.876;9.372;2023-04-24T04:08:07;7.30;99.90
8099;DHT22;4092;47.876;9.372;2023-04-24T04:10:34;7.30;99.90
8099;DHT22;4092;47.876;9.372;2023-04-24T04:13:01;7.30;99.90
8099;DHT22;4092;47.876;9.372;2023-04-24T04:15:30;7.30;99.90
8099;DHT22;4092;47.876;9.372;2023-04-24T04:17:57;7.30;99.90
8099;DHT22;4092;47.876;9.372;2023-04-24T04:20:24;7.30;99.90
8099;DHT22;4092;47.876;9.372;2023-04-24T04:22:51;7.30;99.90
8099;DHT22;4092;47.876;9.372;2023-04-24T04:25:18;7.30;99.90
8099;DHT22;4092;47.876;9.372;2023-04-24T04:27:46;7.30;99.90
8099;DHT22;4092;47.876;9.372;2023-04-24T04:30:14;7.20;99.90
8099;DHT22;4092;47.876;9.372;2023-04-24T04:32:43;7.30;99.90
8099;DHT22;4092;47.876;9.372;2023-04-24T04:35:10;7.20;99.90
8099;DHT22;4092;47.876;9.372;2023-04-24T04:37:37;7.20;99.90
8099;DHT22;4092;47.876;9.372;2023-04-24T04:40:06;7.20;99.90
8099;DHT22;4092;47.876;9.372;2023-04-24T04:42:37;7.20;99.90
8099;DHT22;4092;47.876;9.372;2023-04-24T04:45:06;7.20;99.90
8099;DHT22;4092;47.876;9.372;2023-04-24T04:47:35;7.20;99.90
8099;DHT22;4092;47.876;9.372;2023-04-24T04:50:03;7.30;99.90
8099;DHT22;4092;47.876;9.372;2023-04-24T04:52:31;7.20;99.90
8099;DHT22;4092;47.876;9.372;2023-04-24T04:54:58;7.20;99.90
8099;DHT22;4092;47.876;9.372;2023-04-24T04:57:25;7.20;99.90
8099;DHT22;4092;47.876;9.372;2023-04-24T04:59:52;7.20;99.90
8099;DHT22;4092;47.876;9.372;2023-04-24T05:02:20;7.20;99.90
8099;DHT22;4092;47.876;9.372;2023-04-24T05:04:47;7.20;99.90
8099;DHT22;4092;47.876;9.372;2023-04-24T05:07:17;7.20;99.90
8099;DHT22;4092;47.876;9.372;2023-04-24T05:09:45;7.20;99.90
8099;DHT22;4092;47.876;9.372;2023-04-24T05:12:12;7.20;99.90
8099;DHT22;4092;47.876;9.372;2023-04-24T05:14:39;7.20;99.90
8099;DHT22;4092;47.876;9.372;2023-04-24T05:17:06;7.20;99.90
8099;DHT22;4092;47.876;9.372;2023-04-24T05:19:33;7.20;99.90
8099;DHT22;4092;47.876;9.372;2023-04-24T05:22:03;7.20;99.90
8099;DHT22;4092;47.876;9.372;2023-04-24T05:24:34;7.20;99.90
8099;DHT22;4092;47.876;9.372;2023-04-24T05:27:01;7.20;99.90
8099;DHT22;4092;47.876;9.372;2023-04-24T05:29:28;7.10;99.90
8099;DHT22;4092;47.876;9.372;2023-04-24T05:31:56;7.10;99.90
8099;DHT22;4092;47.876;9.372;2023-04-24T05:34:23;7.10;99.90
8099;DHT22;4092;47.876;9.372;2023-04-24T05:36:50;7.00;99.90
8099;DHT22;4092;47.876;9.372;2023-04-24T05:39:17;7.00;99.90
8099;DHT22;4092;47.876;9.372;2023-04-24T05:41:46;7.00;99.90
8099;DHT22;4092;47.876;9.372;2023-04-24T05:44:13;7.00;99.90
8099;DHT22;4092;47.876;9.372;2023-04-24T05:46:40;6.90;99.90
8099;DHT22;4092;47.876;9.372;2023-04-24T05:49:07;6.90;99.90
8099;DHT22;4092;47.876;9.372;2023-04-24T05:51:34;6.90;99.90
8099;DHT22;4092;47.876;9.372;2023-04-24T05:54:01;6.90;99.90
8099;DHT22;4092;47.876;9.372;2023-04-24T05:56:29;6.80;99.90
8099;DHT22;4092;47.876;9.372;2023-04-24T05:58:57;6.90;99.90
8099;DHT22;4092;47.876;9.372;2023-04-24T06:01:24;6.90;99.90
8099;DHT22;4092;47.876;9.372;2023-04-24T06:03:53;6.90;99.90
8099;DHT22;4092;47.876;9.372;2023-04-24T06:06:20;7.00;99.90
8099;DHT22;4092;47.876;9.372;2023-04-24T06:08:47;7.00;99.90
8099;DHT22;4092;47.876;9.372;2023-04-24T06:11:14;7.00;99.90
8099;DHT22;4092;47.876;9.372;2023-04-24T06:13:41;7.00;99.90
8099;DHT22;4092;47.876;9.372;2023-04-24T06:16:10;7.00;99.90
8099;DHT22;4092;47.876;9.372;2023-04-24T06:18:37;7.10;99.90
8099;DHT22;4092;47.876;9.372;2023-04-24T06:21:05;7.10;99.90
8099;DHT22;4092;47.876;9.372;2023-04-24T06:23:32;7.10;99.90
8099;DHT22;4092;47.876;9.372;2023-04-24T06:25:59;7.20;99.90
8099;DHT22;4092;47.876;9.372;2023-04-24T06:28:26;7.40;99.90
8099;DHT22;4092;47.876;9.372;2023-04-24T06:30:54;7.40;99.90
8099;DHT22;4092;47.876;9.372;2023-04-24T06:33:22;7.40;99.90
8099;DHT22;4092;47.876;9.372;2023-04-24T06:35:51;7.40;99.90
8099;DHT22;4092;47.876;9.372;2023-04-24T06:38:18;7.50;99.90
8099;DHT22;4092;47.876;9.372;2023-04-24T06:40:45;7.60;99.90
8099;DHT22;4092;47.876;9.372;2023-04-24T06:43:12;7.60;99.90
8099;DHT22;4092;47.876;9.372;2023-04-24T06:45:40;7.70;99.90
8099;DHT22;4092;47.876;9.372;2023-04-24T06:48:09;7.70;99.90
8099;DHT22;4092;47.876;9.372;2023-04-24T06:50:39;7.70;99.90
8099;DHT22;4092;47.876;9.372;2023-04-24T06:53:07;7.70;99.90
8099;DHT22;4092;47.876;9.372;2023-04-24T06:55:38;7.70;99.90
8099;DHT22;4092;47.876;9.372;2023-04-24T06:58:05;7.80;99.90
8099;DHT22;4092;47.876;9.372;2023-04-24T07:00:34;7.80;99.90
8099;DHT22;4092;47.876;9.372;2023-04-24T07:03:02;7.80;99.90
8099;DHT22;4092;47.876;9.372;2023-04-24T07:05:30;7.90;99.90
8099;DHT22;4092;47.876;9.372;2023-04-24T07:08:01;7.90;99.90
8099;DHT22;4092;47.876;9.372;2023-04-24T07:10:28;8.00;99.90
8099;DHT22;4092;47.876;9.372;2023-04-24T07:12:56;8.00;99.90
8099;DHT22;4092;47.876;9.372;2023-04-24T07:15:23;8.10;99.90
8099;DHT22;4092;47.876;9.372;2023-04-24T07:17:50;8.10;99.90
8099;DHT22;4092;47.876;9.372;2023-04-24T07:20:19;8.10;99.90
8099;DHT22;4092;47.876;9.372;2023-04-24T07:22:46;8.10;99.90
8099;DHT22;4092;47.876;9.372;2023-04-24T07:25:15;8.10;99.90
8099;DHT22;4092;47.876;9.372;2023-04-24T07:27:42;8.20;99.90
8099;DHT22;4092;47.876;9.372;2023-04-24T07:30:12;8.30;99.90
8099;DHT22;4092;47.876;9.372;2023-04-24T07:32:39;8.30;99.90
8099;DHT22;4092;47.876;9.372;2023-04-24T07:35:06;8.40;99.90
8099;DHT22;4092;47.876;9.372;2023-04-24T07:37:35;8.40;99.90
8099;DHT22;4092;47.876;9.372;2023-04-24T07:40:02;8.30;99.90
8099;DHT22;4092;47.876;9.372;2023-04-24T07:42:31;8.30;99.90
8099;DHT22;4092;47.876;9.372;2023-04-24T07:45:00;8.30;99.90
8099;DHT22;4092;47.876;9.372;2023-04-24T07:47:27;8.30;99.90
8099;DHT22;4092;47.876;9.372;2023-04-24T07:49:54;8.30;99.90
8099;DHT22;4092;47.876;9.372;2023-04-24T07:52:21;8.30;99.90
8099;DHT22;4092;47.876;9.372;2023-04-24T07:54:49;8.30;99.90
8099;DHT22;4092;47.876;9.372;2023-04-24T07:57:18;8.20;99.90
8099;DHT22;4092;47.876;9.372;2023-04-24T07:59:47;8.00;99.90
8099;DHT22;4092;47.876;9.372;2023-04-24T08:02:13;7.90;99.90
8099;DHT22;4092;47.876;9.372;2023-04-24T08:04:45;8.10;99.90
8099;DHT22;4092;47.876;9.372;2023-04-24T08:07:12;8.30;99.90
8099;DHT22;4092;47.876;9.372;2023-04-24T08:09:39;8.50;99.90
8099;DHT22;4092;47.876;9.372;2023-04-24T08:12:06;8.70;99.90
8099;DHT22;4092;47.876;9.372;2023-04-24T08:14:34;8.70;99.90
8099;DHT22;4092;47.876;9.372;2023-04-24T08:17:08;8.80;99.90
8099;DHT22;4092;47.876;9.372;2023-04-24T08:19:35;8.80;99.90
8099;DHT22;4092;47.876;9.372;2023-04-24T08:22:02;8.80;99.90
8099;DHT22;4092;47.876;9.372;2023-04-24T08:24:29;8.70;99.90
8099;DHT22;4092;47.876;9.372;2023-04-24T08:26:56;8.60;99.90
8099;DHT22;4092;47.876;9.372;2023-04-24T08:29:24;8.40;99.90
8099;DHT22;4092;47.876;9.372;2023-04-24T08:31:52;8.30;99.90
8099;DHT22;4092;47.876;9.372;2023-04-24T08:34:22;8.20;99.90
8099;DHT22;4092;47.876;9.372;2023-04-24T08:36:49;7.90;99.90
8099;DHT22;4092;47.876;9.372;2023-04-24T08:39:20;7.90;99.90
8099;DHT22;4092;47.876;9.372;2023-04-24T08:41:48;7.90;99.90
8099;DHT22;4092;47.876;9.372;2023-04-24T08:44:16;8.00;99.90
8099;DHT22;4092;47.876;9.372;2023-04-24T08:46:44;8.20;99.90
8099;DHT22;4092;47.876;9.372;2023-04-24T08:49:19;8.40;99.90
8099;DHT22;4092;47.876;9.372;2023-04-24T08:51:53;8.50;99.90
8099;DHT22;4092;47.876;9.372;2023-04-24T08:54:21;8.70;99.90
8099;DHT22;4092;47.876;9.372;2023-04-24T08:56:50;8.80;99.90
8099;DHT22;4092;47.876;9.372;2023-04-24T08:59:21;8.90;99.90
8099;DHT22;4092;47.876;9.372;2023-04-24T09:01:49;9.00;99.90
8099;DHT22;4092;47.876;9.372;2023-04-24T09:04:20;9.30;99.90
8099;DHT22;4092;47.876;9.372;2023-04-24T09:06:51;9.50;99.90
8099;DHT22;4092;47.876;9.372;2023-04-24T09:09:30;9.60;99.90
8099;DHT22;4092;47.876;9.372;2023-04-24T09:12:05;9.70;99.90
8099;DHT22;4092;47.876;9.372;2023-04-24T09:14:34;9.60;99.90
8099;DHT22;4092;47.876;9.372;2023-04-24T09:17:04;9.60;99.90
8099;DHT22;4092;47.876;9.372;2023-04-24T09:19:32;9.50;99.90
8099;DHT22;4092;47.876;9.372;2023-04-24T09:22:04;9.40;99.90
8099;DHT22;4092;47.876;9.372;2023-04-24T09:24:33;9.20;99.90
8099;DHT22;4092;47.876;9.372;2023-04-24T09:27:01;9.10;99.90
8099;DHT22;4092;47.876;9.372;2023-04-24T09:29:29;9.10;99.90
8099;DHT22;4092;47.876;9.372;2023-04-24T09:31:58;9.20;99.90
8099;DHT22;4092;47.876;9.372;2023-04-24T09:34:26;9.60;99.90
8099;DHT22;4092;47.876;9.372;2023-04-24T09:36:54;9.90;99.90
8099;DHT22;4092;47.876;9.372;2023-04-24T09:39:22;9.80;99.90
8099;DHT22;4092;47.876;9.372;2023-04-24T09:41:51;9.80;99.90
8099;DHT22;4092;47.876;9.372;2023-04-24T09:44:19;9.60;99.90
8099;DHT22;4092;47.876;9.372;2023-04-24T09:46:49;9.50;99.90
8099;DHT22;4092;47.876;9.372;2023-04-24T09:49:22;9.30;99.90
8099;DHT22;4092;47.876;9.372;2023-04-24T09:51:50;9.30;99.90
8099;DHT22;4092;47.876;9.372;2023-04-24T09:54:18;9.30;99.90
8099;DHT22;4092;47.876;9.372;2023-04-24T09:56:49;9.30;99.90
8099;DHT22;4092;47.876;9.372;2023-04-24T09:59:18;9.30;99.90
8099;DHT22;4092;47.876;9.372;2023-04-24T10:01:46;9.50;99.90
8099;DHT22;4092;47.876;9.372;2023-04-24T10:04:19;9.70;99.90
8099;DHT22;4092;47.876;9.372;2023-04-24T10:06:48;9.90;99.90
8099;DHT22;4092;47.876;9.372;2023-04-24T10:09:15;10.20;99.90
8099;DHT22;4092;47.876;9.372;2023-04-24T10:11:44;10.30;99.90
8099;DHT22;4092;47.876;9.372;2023-04-24T10:14:15;10.30;99.90
8099;DHT22;4092;47.876;9.372;2023-04-24T10:16:44;10.10;99.90
8099;DHT22;4092;47.876;9.372;2023-04-24T10:19:12;10.30;99.90
8099;DHT22;4092;47.876;9.372;2023-04-24T10:21:40;10.40;99.90
8099;DHT22;4092;47.876;9.372;2023-04-24T10:24:12;10.50;99.90
8099;DHT22;4092;47.876;9.372;2023-04-24T10:26:41;10.50;99.90
8099;DHT22;4092;47.876;9.372;2023-04-24T10:29:08;10.70;99.90
8099;DHT22;4092;47.876;9.372;2023-04-24T10:31:40;11.10;99.90
8099;DHT22;4092;47.876;9.372;2023-04-24T10:34:10;11.10;99.90
8099;DHT22;4092;47.876;9.372;2023-04-24T10:36:40;11.00;99.90
8099;DHT22;4092;47.876;9.372;2023-04-24T10:39:16;10.90;99.90
8099;DHT22;4092;47.876;9.372;2023-04-24T10:41:44;10.90;99.90
8099;DHT22;4092;47.876;9.372;2023-04-24T10:44:15;10.90;99.90
8099;DHT22;4092;47.876;9.372;2023-04-24T10:46:45;10.90;99.90
8099;DHT22;4092;47.876;9.372;2023-04-24T10:49:16;10.90;99.90
8099;DHT22;4092;47.876;9.372;2023-04-24T10:51:46;11.20;99.90
8099;DHT22;4092;47.876;9.372;2023-04-24T10:54:23;11.20;99.90
8099;DHT22;4092;47.876;9.372;2023-04-24T10:56:51;11.50;99.90
8099;DHT22;4092;47.876;9.372;2023-04-24T10:59:24;11.60;99.90
8099;DHT22;4092;47.876;9.372;2023-04-24T11:01:57;11.80;99.90
8099;DHT22;4092;47.876;9.372;2023-04-24T11:04:30;11.70;99.90
8099;DHT22;4092;47.876;9.372;2023-04-24T11:07:01;11.10;99.90
8099;DHT22;4092;47.876;9.372;2023-04-24T11:09:31;10.90;99.90
8099;DHT22;4092;47.876;9.372;2023-04-24T11:12:06;10.60;99.90
8099;DHT22;4092;47.876;9.372;2023-04-24T11:15:02;10.60;99.90
8099;DHT22;4092;47.876;9.372;2023-04-24T11:17:49;10.60;99.90
8099;DHT22;4092;47.876;9.372;2023-04-24T11:20:18;10.80;99.90
8099;DHT22;4092;47.876;9.372;2023-04-24T11:22:47;11.20;99.90
8099;DHT22;4092;47.876;9.372;2023-04-24T11:25:15;11.20;99.90
8099;DHT22;4092;47.876;9.372;2023-04-24T11:27:46;10.90;99.90
8099;DHT22;4092;47.876;9.372;2023-04-24T11:30:17;11.10;99.90
8099;DHT22;4092;47.876;9.372;2023-04-24T11:33:01;11.30;99.90
8099;DHT22;4092;47.876;9.372;2023-04-24T11:35:29;11.60;99.90
8099;DHT22;4092;47.876;9.372;2023-04-24T11:37:56;11.60;99.90
8099;DHT22;4092;47.876;9.372;2023-04-24T11:40:28;11.50;99.90
8099;DHT22;4092;47.876;9.372;2023-04-24T11:42:55;11.80;99.90
8099;DHT22;4092;47.876;9.372;2023-04-24T11:45:24;12.00;99.90
8099;DHT22;4092;47.876;9.372;2023-04-24T11:47:53;12.30;99.90
8099;DHT22;4092;47.876;9.372;2023-04-24T11:50:24;12.60;99.90
8099;DHT22;4092;47.876;9.372;2023-04-24T11:52:54;12.50;99.90
8099;DHT22;4092;47.876;9.372;2023-04-24T11:55:28;11.90;99.90
8099;DHT22;4092;47.876;9.372;2023-04-24T11:57:56;11.80;99.90
8099;DHT22;4092;47.876;9.372;2023-04-24T12:00:41;11.80;99.90
8099;DHT22;4092;47.876;9.372;2023-04-24T12:03:13;11.70;99.90
8099;DHT22;4092;47.876;9.372;2023-04-24T12:05:40;11.90;99.90
8099;DHT22;4092;47.876;9.372;2023-04-24T12:08:07;12.30;99.90
8099;DHT22;4092;47.876;9.372;2023-04-24T12:10:35;12.90;99.90
8099;DHT22;4092;47.876;9.372;2023-04-24T12:13:02;13.30;99.90
8099;DHT22;4092;47.876;9.372;2023-04-24T12:15:29;13.00;99.90
8099;DHT22;4092;47.876;9.372;2023-04-24T12:17:57;12.90;99.90
8099;DHT22;4092;47.876;9.372;2023-04-24T12:20:28;13.00;99.90
8099;DHT22;4092;47.876;9.372;2023-04-24T12:22:57;13.00;99.90
8099;DHT22;4092;47.876;9.372;2023-04-24T12:25:25;13.00;99.90
8099;DHT22;4092;47.876;9.372;2023-04-24T12:28:10;12.70;99.90
8099;DHT22;4092;47.876;9.372;2023-04-24T12:30:42;12.40;99.90
8099;DHT22;4092;47.876;9.372;2023-04-24T12:33:19;12.50;99.90
8099;DHT22;4092;47.876;9.372;2023-04-24T12:35:48;12.60;99.90
8099;DHT22;4092;47.876;9.372;2023-04-24T12:38:23;12.70;99.90
8099;DHT22;4092;47.876;9.372;2023-04-24T12:41:02;12.80;99.90
8099;DHT22;4092;47.876;9.372;2023-04-24T12:43:29;12.60;99.90
8099;DHT22;4092;47.876;9.372;2023-04-24T12:45:56;12.50;99.90
8099;DHT22;4092;47.876;9.372;2023-04-24T12:48:24;12.40;99.90
8099;DHT22;4092;47.876;9.372;2023-04-24T12:50:53;12.00;99.90
8099;DHT22;4092;47.876;9.372;2023-04-24T12:53:20;11.60;99.90
8099;DHT22;4092;47.876;9.372;2023-04-24T12:55:47;11.40;99.90
8099;DHT22;4092;47.876;9.372;2023-04-24T12:58:19;11.60;99.90
8099;DHT22;4092;47.876;9.372;2023-04-24T13:00:47;11.30;99.90
8099;DHT22;4092;47.876;9.372;2023-04-24T13:03:16;11.10;99.90
8099;DHT22;4092;47.876;9.372;2023-04-24T13:05:43;11.10;99.90
8099;DHT22;4092;47.876;9.372;2023-04-24T13:08:15;11.30;99.90
8099;DHT22;4092;47.876;9.372;2023-04-24T13:10:43;11.60;99.90
8099;DHT22;4092;47.876;9.372;2023-04-24T13:13:11;12.00;99.90
8099;DHT22;4092;47.876;9.372;2023-04-24T13:15:38;12.00;99.90
8099;DHT22;4092;47.876;9.372;2023-04-24T13:18:07;11.80;99.90
8099;DHT22;4092;47.876;9.372;2023-04-24T13:20:36;11.60;99.90
8099;DHT22;4092;47.876;9.372;2023-04-24T13:23:09;11.60;99.90
8099;DHT22;4092;47.876;9.372;2023-04-24T13:25:39;12.10;99.90
8099;DHT22;4092;47.876;9.372;2023-04-24T13:28:08;12.20;99.90
8099;DHT22;4092;47.876;9.372;2023-04-24T13:30:37;12.60;99.90
8099;DHT22;4092;47.876;9.372;2023-04-24T13:33:04;12.90;99.90
8099;DHT22;4092;47.876;9.372;2023-04-24T13:35:32;13.10;99.90
8099;DHT22;4092;47.876;9.372;2023-04-24T13:38:00;12.80;99.90
8099;DHT22;4092;47.876;9.372;2023-04-24T13:40:34;12.70;99.90
8099;DHT22;4092;47.876;9.372;2023-04-24T13:43:03;13.10;99.90
8099;DHT22;4092;47.876;9.372;2023-04-24T13:45:31;13.10;99.90
8099;DHT22;4092;47.876;9.372;2023-04-24T13:48:04;12.80;99.90
8099;DHT22;4092;47.876;9.372;2023-04-24T13:50:33;12.30;99.90
8099;DHT22;4092;47.876;9.372;2023-04-24T13:53:08;11.80;99.90
8099;DHT22;4092;47.876;9.372;2023-04-24T13:55:43;11.50;99.90
8099;DHT22;4092;47.876;9.372;2023-04-24T13:58:12;11.30;99.90
8099;DHT22;4092;47.876;9.372;2023-04-24T14:00:42;11.30;99.90
8099;DHT22;4092;47.876;9.372;2023-04-24T14:03:10;11.20;99.90
8099;DHT22;4092;47.876;9.372;2023-04-24T14:05:43;11.20;99.90
8099;DHT22;4092;47.876;9.372;2023-04-24T14:08:12;11.40;99.90
8099;DHT22;4092;47.876;9.372;2023-04-24T14:10:39;11.70;99.90
8099;DHT22;4092;47.876;9.372;2023-04-24T14:13:12;12.00;99.90
8099;DHT22;4092;47.876;9.372;2023-04-24T14:15:46;12.40;99.90
8099;DHT22;4092;47.876;9.372;2023-04-24T14:18:13;12.30;99.90
8099;DHT22;4092;47.876;9.372;2023-04-24T14:20:40;11.90;99.90
8099;DHT22;4092;47.876;9.372;2023-04-24T14:23:08;11.70;99.90
8099;DHT22;4092;47.876;9.372;2023-04-24T14:25:35;11.70;99.90
8099;DHT22;4092;47.876;9.372;2023-04-24T14:28:02;11.50;99.90
8099;DHT22;4092;47.876;9.372;2023-04-24T14:30:30;11.50;99.90
8099;DHT22;4092;47.876;9.372;2023-04-24T14:32:57;11.30;99.90
8099;DHT22;4092;47.876;9.372;2023-04-24T14:35:25;11.30;99.90
8099;DHT22;4092;47.876;9.372;2023-04-24T14:37:52;11.20;99.90
8099;DHT22;4092;47.876;9.372;2023-04-24T14:40:21;11.20;99.90
8099;DHT22;4092;47.876;9.372;2023-04-24T14:42:49;11.00;99.90
8099;DHT22;4092;47.876;9.372;2023-04-24T14:45:18;10.90;99.90
8099;DHT22;4092;47.876;9.372;2023-04-24T14:47:46;10.90;99.90
8099;DHT22;4092;47.876;9.372;2023-04-24T14:50:13;10.70;99.90
8099;DHT22;4092;47.876;9.372;2023-04-24T14:52:41;10.60;99.90
8099;DHT22;4092;47.876;9.372;2023-04-24T14:55:09;10.50;99.90
8099;DHT22;4092;47.876;9.372;2023-04-24T14:57:36;10.60;99.90
8099;DHT22;4092;47.876;9.372;2023-04-24T15:00:04;10.60;99.90
8099;DHT22;4092;47.876;9.372;2023-04-24T15:02:34;10.70;99.90
8099;DHT22;4092;47.876;9.372;2023-04-24T15:05:08;10.70;99.90
8099;DHT22;4092;47.876;9.372;2023-04-24T15:07:36;10.90;99.90
8099;DHT22;4092;47.876;9.372;2023-04-24T15:10:04;11.10;99.90
8099;DHT22;4092;47.876;9.372;2023-04-24T15:12:31;11.30;99.90
8099;DHT22;4092;47.876;9.372;2023-04-24T15:15:00;11.50;99.90
8099;DHT22;4092;47.876;9.372;2023-04-24T15:17:27;11.50;99.90
8099;DHT22;4092;47.876;9.372;2023-04-24T15:19:54;11.30;99.90
8099;DHT22;4092;47.876;9.372;2023-04-24T15:22:39;11.20;99.90
8099;DHT22;4092;47.876;9.372;2023-04-24T15:25:07;11.10;99.90
8099;DHT22;4092;47.876;9.372;2023-04-24T15:27:40;11.00;99.90
8099;DHT22;4092;47.876;9.372;2023-04-24T15:30:09;10.90;99.90
8099;DHT22;4092;47.876;9.372;2023-04-24T15:32:37;10.80;99.90
8099;DHT22;4092;47.876;9.372;2023-04-24T15:35:08;10.80;99.90
8099;DHT22;4092;47.876;9.372;2023-04-24T15:37:36;10.70;99.90
8099;DHT22;4092;47.876;9.372;2023-04-24T15:40:08;10.70;99.90
8099;DHT22;4092;47.876;9.372;2023-04-24T15:42:38;10.60;99.90
8099;DHT22;4092;47.876;9.372;2023-04-24T15:45:06;10.70;99.90
8099;DHT22;4092;47.876;9.372;2023-04-24T15:47:33;10.70;99.90
8099;DHT22;4092;47.876;9.372;2023-04-24T15:50:05;10.60;99.90
8099;DHT22;4092;47.876;9.372;2023-04-24T15:52:34;10.50;99.90
8099;DHT22;4092;47.876;9.372;2023-04-24T15:55:03;10.60;99.90
8099;DHT22;4092;47.876;9.372;2023-04-24T15:57:32;10.60;99.90
8099;DHT22;4092;47.876;9.372;2023-04-24T16:00:01;10.70;99.90
8099;DHT22;4092;47.876;9.372;2023-04-24T16:02:28;10.60;99.90
8099;DHT22;4092;47.876;9.372;2023-04-24T16:04:57;10.60;99.90
8099;DHT22;4092;47.876;9.372;2023-04-24T16:07:24;10.50;99.90
8099;DHT22;4092;47.876;9.372;2023-04-24T16:09:52;10.50;99.90
8099;DHT22;4092;47.876;9.372;2023-04-24T16:12:21;10.50;99.90
8099;DHT22;4092;47.876;9.372;2023-04-24T16:14:53;10.40;99.90
8099;DHT22;4092;47.876;9.372;2023-04-24T16:17:20;10.40;99.90
8099;DHT22;4092;47.876;9.372;2023-04-24T16:19:47;10.50;99.90
8099;DHT22;4092;47.876;9.372;2023-04-24T16:22:14;10.60;99.90